sensor_id;sensor_type;location;lat;lon;timestamp;P1;durP1;ratioP1;P2;durP2;ratioP2
2784;SDS011;57944;48.722;9.316;2022-07-23T00:02:23;10.30;;;9.07;;
2784;SDS011;57944;48.722;9.316;2022-07-23T00:04:56;10.70;;;8.43;;
2784;SDS011;57944;48.722;9.316;2022-07-23T00:07:26;9.73;;;8.63;;
2784;SDS011;57944;48.722;9.316;2022-07-23T00:09:56;11.13;;;9.37;;
2784;SDS011;57944;48.722;9.316;2022-07-23T00:12:26;11.50;;;8.07;;
2784;SDS011;57944;48.722;9.316;2022-07-23T00:14:57;8.90;;;7.83;;
2784;SDS011;57944;48.722;9.316;2022-07-23T00:17:27;9.30;;;8.20;;
2784;SDS011;57944;48.722;9.316;2022-07-23T00:20:00;11.47;;;8.47;;
2784;SDS011;57944;48.722;9.316;2022-07-23T00:22:30;8.80;;;7.90;;
2784;SDS011;57944;48.722;9.316;2022-07-23T00:25:00;8.13;;;7.20;;
2784;SDS011;57944;48.722;9.316;2022-07-23T00:27:50;8.93;;;7.57;;
2784;SDS011;57944;48.722;9.316;2022-07-23T00:30:21;9.77;;;8.47;;
2784;SDS011;57944;48.722;9.316;2022-07-23T00:32:54;9.20;;;7.47;;
2784;SDS011;57944;48.722;9.316;2022-07-23T00:35:31;12.43;;;7.23;;
2784;SDS011;57944;48.722;9.316;2022-07-23T00:38:03;12.67;;;8.30;;
2784;SDS011;57944;48.722;9.316;2022-07-23T00:40:34;9.13;;;7.73;;
2784;SDS011;57944;48.722;9.316;2022-07-23T00:43:05;8.73;;;7.10;;
2784;SDS011;57944;48.722;9.316;2022-07-23T00:45:36;9.70;;;7.83;;
2784;SDS011;57944;48.722;9.316;2022-07-23T00:48:07;8.67;;;7.37;;
2784;SDS011;57944;48.722;9.316;2022-07-23T00:50:40;9.67;;;6.43;;
2784;SDS011;57944;48.722;9.316;2022-07-23T00:53:11;8.60;;;6.47;;
2784;SDS011;57944;48.722;9.316;2022-07-23T00:55:42;6.40;;;5.47;;
2784;SDS011;57944;48.722;9.316;2022-07-23T00:58:12;8.20;;;5.70;;
2784;SDS011;57944;48.722;9.316;2022-07-23T01:00:45;7.57;;;5.80;;
2784;SDS011;57944;48.722;9.316;2022-07-23T01:03:15;6.50;;;4.53;;
2784;SDS011;57944;48.722;9.316;2022-07-23T01:05:48;8.90;;;5.20;;
2784;SDS011;57944;48.722;9.316;2022-07-23T01:08:18;6.50;;;5.17;;
2784;SDS011;57944;48.722;9.316;2022-07-23T01:10:49;7.33;;;5.80;;
2784;SDS011;57944;48.722;9.316;2022-07-23T01:13:21;8.13;;;6.20;;
2784;SDS011;57944;48.722;9.316;2022-07-23T01:15:51;6.33;;;5.70;;
2784;SDS011;57944;48.722;9.316;2022-07-23T01:18:21;6.90;;;5.90;;
2784;SDS011;57944;48.722;9.316;2022-07-23T01:20:54;13.50;;;5.03;;
2784;SDS011;57944;48.722;9.316;2022-07-23T01:23:27;9.33;;;6.20;;
2784;SDS011;57944;48.722;9.316;2022-07-23T01:25:58;6.73;;;5.03;;
2784;SDS011;57944;48.722;9.316;2022-07-23T01:28:28;9.93;;;5.70;;
2784;SDS011;57944;48.722;9.316;2022-07-23T01:30:59;12.33;;;6.87;;
2784;SDS011;57944;48.722;9.316;2022-07-23T01:33:33;9.13;;;5.83;;
2784;SDS011;57944;48.722;9.316;2022-07-23T01:36:04;6.77;;;5.80;;
2784;SDS011;57944;48.722;9.316;2022-07-23T01:38:38;6.77;;;5.90;;
2784;SDS011;57944;48.722;9.316;2022-07-23T01:41:08;9.00;;;6.67;;
2784;SDS011;57944;48.722;9.316;2022-07-23T01:43:40;7.00;;;6.30;;
2784;SDS011;57944;48.722;9.316;2022-07-23T01:46:10;10.10;;;6.60;;
2784;SDS011;57944;48.722;9.316;2022-07-23T01:48:46;7.63;;;6.57;;
2784;SDS011;57944;48.722;9.316;2022-07-23T01:51:33;7.20;;;6.50;;
2784;SDS011;57944;48.722;9.316;2022-07-23T01:54:10;7.90;;;6.80;;
2784;SDS011;57944;48.722;9.316;2022-07-23T01:56:40;7.77;;;6.20;;
2784;SDS011;57944;48.722;9.316;2022-07-23T01:59:11;9.80;;;7.33;;
2784;SDS011;57944;48.722;9.316;2022-07-23T02:01:41;7.50;;;5.50;;
2784;SDS011;57944;48.722;9.316;2022-07-23T02:04:12;6.87;;;6.07;;
2784;SDS011;57944;48.722;9.316;2022-07-23T02:06:42;8.60;;;6.80;;
2784;SDS011;57944;48.722;9.316;2022-07-23T02:09:15;8.60;;;6.60;;
2784;SDS011;57944;48.722;9.316;2022-07-23T02:11:46;8.00;;;6.20;;
2784;SDS011;57944;48.722;9.316;2022-07-23T02:14:18;7.30;;;6.33;;
2784;SDS011;57944;48.722;9.316;2022-07-23T02:16:48;7.97;;;6.80;;
2784;SDS011;57944;48.722;9.316;2022-07-23T02:19:18;8.93;;;7.23;;
2784;SDS011;57944;48.722;9.316;2022-07-23T02:21:48;7.13;;;6.43;;
2784;SDS011;57944;48.722;9.316;2022-07-23T02:24:23;7.40;;;5.80;;
2784;SDS011;57944;48.722;9.316;2022-07-23T02:26:54;7.63;;;6.20;;
2784;SDS011;57944;48.722;9.316;2022-07-23T02:29:24;9.50;;;6.07;;
2784;SDS011;57944;48.722;9.316;2022-07-23T02:31:54;8.63;;;6.43;;
2784;SDS011;57944;48.722;9.316;2022-07-23T02:34:25;8.87;;;6.30;;
2784;SDS011;57944;48.722;9.316;2022-07-23T02:36:55;9.97;;;5.90;;
2784;SDS011;57944;48.722;9.316;2022-07-23T02:39:30;7.50;;;6.37;;
2784;SDS011;57944;48.722;9.316;2022-07-23T02:42:00;7.53;;;6.47;;
2784;SDS011;57944;48.722;9.316;2022-07-23T02:44:32;9.17;;;6.50;;
2784;SDS011;57944;48.722;9.316;2022-07-23T02:47:03;8.80;;;7.00;;
2784;SDS011;57944;48.722;9.316;2022-07-23T02:49:34;9.60;;;7.50;;
2784;SDS011;57944;48.722;9.316;2022-07-23T02:52:05;7.60;;;6.20;;
2784;SDS011;57944;48.722;9.316;2022-07-23T02:54:39;7.40;;;6.70;;
2784;SDS011;57944;48.722;9.316;2022-07-23T02:57:12;9.10;;;6.90;;
2784;SDS011;57944;48.722;9.316;2022-07-23T02:59:42;7.90;;;6.47;;
2784;SDS011;57944;48.722;9.316;2022-07-23T03:02:13;7.93;;;6.90;;
2784;SDS011;57944;48.722;9.316;2022-07-23T03:04:43;7.90;;;6.50;;
2784;SDS011;57944;48.722;9.316;2022-07-23T03:07:13;9.30;;;6.80;;
2784;SDS011;57944;48.722;9.316;2022-07-23T03:09:46;14.37;;;7.03;;
2784;SDS011;57944;48.722;9.316;2022-07-23T03:12:16;13.47;;;8.23;;
2784;SDS011;57944;48.722;9.316;2022-07-23T03:14:46;11.07;;;7.17;;
2784;SDS011;57944;48.722;9.316;2022-07-23T03:17:16;7.90;;;6.50;;
2784;SDS011;57944;48.722;9.316;2022-07-23T03:19:46;10.90;;;6.63;;
2784;SDS011;57944;48.722;9.316;2022-07-23T03:22:16;9.83;;;7.10;;
2784;SDS011;57944;48.722;9.316;2022-07-23T03:24:49;12.40;;;6.97;;
2784;SDS011;57944;48.722;9.316;2022-07-23T03:27:33;11.30;;;7.60;;
2784;SDS011;57944;48.722;9.316;2022-07-23T03:30:03;9.00;;;6.77;;
2784;SDS011;57944;48.722;9.316;2022-07-23T03:32:34;9.03;;;6.60;;
2784;SDS011;57944;48.722;9.316;2022-07-23T03:35:05;7.73;;;6.93;;
2784;SDS011;57944;48.722;9.316;2022-07-23T03:37:44;9.43;;;7.37;;
2784;SDS011;57944;48.722;9.316;2022-07-23T03:40:17;7.60;;;6.80;;
2784;SDS011;57944;48.722;9.316;2022-07-23T03:42:47;8.47;;;7.10;;
2784;SDS011;57944;48.722;9.316;2022-07-23T03:45:17;8.73;;;6.67;;
2784;SDS011;57944;48.722;9.316;2022-07-23T03:47:47;9.63;;;6.60;;
2784;SDS011;57944;48.722;9.316;2022-07-23T03:50:18;14.13;;;7.57;;
2784;SDS011;57944;48.722;9.316;2022-07-23T03:52:49;8.30;;;6.53;;
2784;SDS011;57944;48.722;9.316;2022-07-23T03:55:23;10.07;;;7.60;;
2784;SDS011;57944;48.722;9.316;2022-07-23T03:57:53;8.77;;;6.47;;
2784;SDS011;57944;48.722;9.316;2022-07-23T04:00:23;11.60;;;7.47;;
2784;SDS011;57944;48.722;9.316;2022-07-23T04:02:54;10.20;;;7.70;;
2784;SDS011;57944;48.722;9.316;2022-07-23T04:05:24;10.60;;;6.30;;
2784;SDS011;57944;48.722;9.316;2022-07-23T04:08:04;11.03;;;7.33;;
2784;SDS011;57944;48.722;9.316;2022-07-23T04:10:40;12.30;;;7.47;;
2784;SDS011;57944;48.722;9.316;2022-07-23T04:13:11;7.83;;;7.03;;
2784;SDS011;57944;48.722;9.316;2022-07-23T04:15:41;9.17;;;7.63;;
2784;SDS011;57944;48.722;9.316;2022-07-23T04:18:12;9.63;;;8.00;;
2784;SDS011;57944;48.722;9.316;2022-07-23T04:20:52;11.20;;;7.57;;
2784;SDS011;57944;48.722;9.316;2022-07-23T04:23:22;7.77;;;6.30;;
2784;SDS011;57944;48.722;9.316;2022-07-23T04:25:56;8.50;;;7.37;;
2784;SDS011;57944;48.722;9.316;2022-07-23T04:28:26;12.80;;;8.17;;
2784;SDS011;57944;48.722;9.316;2022-07-23T04:30:56;8.37;;;7.20;;
2784;SDS011;57944;48.722;9.316;2022-07-23T04:33:29;8.10;;;6.70;;
2784;SDS011;57944;48.722;9.316;2022-07-23T04:36:04;11.20;;;8.23;;
2784;SDS011;57944;48.722;9.316;2022-07-23T04:38:35;9.93;;;7.40;;
2784;SDS011;57944;48.722;9.316;2022-07-23T04:41:07;11.43;;;8.80;;
2784;SDS011;57944;48.722;9.316;2022-07-23T04:43:38;9.73;;;7.20;;
2784;SDS011;57944;48.722;9.316;2022-07-23T04:46:08;9.10;;;7.80;;
2784;SDS011;57944;48.722;9.316;2022-07-23T04:48:45;10.67;;;8.13;;
2784;SDS011;57944;48.722;9.316;2022-07-23T04:51:16;11.53;;;8.07;;
2784;SDS011;57944;48.722;9.316;2022-07-23T04:53:47;8.60;;;7.27;;
2784;SDS011;57944;48.722;9.316;2022-07-23T04:56:20;12.63;;;8.33;;
2784;SDS011;57944;48.722;9.316;2022-07-23T04:58:50;11.93;;;8.60;;
2784;SDS011;57944;48.722;9.316;2022-07-23T05:01:20;10.30;;;9.30;;
2784;SDS011;57944;48.722;9.316;2022-07-23T05:03:51;9.70;;;8.00;;
2784;SDS011;57944;48.722;9.316;2022-07-23T05:06:22;11.50;;;8.60;;
2784;SDS011;57944;48.722;9.316;2022-07-23T05:08:52;17.30;;;7.80;;
2784;SDS011;57944;48.722;9.316;2022-07-23T05:11:25;10.00;;;8.47;;
2784;SDS011;57944;48.722;9.316;2022-07-23T05:13:55;8.97;;;7.57;;
2784;SDS011;57944;48.722;9.316;2022-07-23T05:16:25;9.33;;;8.43;;
2784;SDS011;57944;48.722;9.316;2022-07-23T05:19:00;10.37;;;8.27;;
2784;SDS011;57944;48.722;9.316;2022-07-23T05:21:33;15.70;;;9.43;;
2784;SDS011;57944;48.722;9.316;2022-07-23T05:24:05;17.57;;;9.60;;
2784;SDS011;57944;48.722;9.316;2022-07-23T05:26:38;18.33;;;8.47;;
2784;SDS011;57944;48.722;9.316;2022-07-23T05:29:09;17.03;;;9.80;;
2784;SDS011;57944;48.722;9.316;2022-07-23T05:31:39;13.73;;;10.10;;
2784;SDS011;57944;48.722;9.316;2022-07-23T05:34:10;14.43;;;8.70;;
2784;SDS011;57944;48.722;9.316;2022-07-23T05:36:44;10.70;;;8.13;;
2784;SDS011;57944;48.722;9.316;2022-07-23T05:39:15;14.43;;;9.10;;
2784;SDS011;57944;48.722;9.316;2022-07-23T05:41:49;16.00;;;8.80;;
2784;SDS011;57944;48.722;9.316;2022-07-23T05:44:22;13.90;;;8.50;;
2784;SDS011;57944;48.722;9.316;2022-07-23T05:47:00;10.63;;;8.50;;
2784;SDS011;57944;48.722;9.316;2022-07-23T05:49:30;9.90;;;8.37;;
2784;SDS011;57944;48.722;9.316;2022-07-23T05:52:19;10.30;;;9.20;;
2784;SDS011;57944;48.722;9.316;2022-07-23T05:55:09;11.47;;;8.20;;
2784;SDS011;57944;48.722;9.316;2022-07-23T05:57:44;10.10;;;8.47;;
2784;SDS011;57944;48.722;9.316;2022-07-23T06:00:14;10.47;;;8.83;;
2784;SDS011;57944;48.722;9.316;2022-07-23T06:02:46;11.47;;;9.17;;
2784;SDS011;57944;48.722;9.316;2022-07-23T06:05:22;9.57;;;8.57;;
2784;SDS011;57944;48.722;9.316;2022-07-23T06:07:54;9.70;;;8.23;;
2784;SDS011;57944;48.722;9.316;2022-07-23T06:10:26;10.23;;;8.90;;
2784;SDS011;57944;48.722;9.316;2022-07-23T06:12:59;11.50;;;9.50;;
2784;SDS011;57944;48.722;9.316;2022-07-23T06:15:30;17.00;;;10.50;;
2784;SDS011;57944;48.722;9.316;2022-07-23T06:18:00;14.07;;;9.77;;
2784;SDS011;57944;48.722;9.316;2022-07-23T06:20:30;12.10;;;8.80;;
2784;SDS011;57944;48.722;9.316;2022-07-23T06:23:00;13.27;;;9.43;;
2784;SDS011;57944;48.722;9.316;2022-07-23T06:25:31;10.47;;;9.00;;
2784;SDS011;57944;48.722;9.316;2022-07-23T06:28:04;11.63;;;8.20;;
2784;SDS011;57944;48.722;9.316;2022-07-23T06:30:34;11.10;;;9.83;;
2784;SDS011;57944;48.722;9.316;2022-07-23T06:33:04;10.70;;;9.67;;
2784;SDS011;57944;48.722;9.316;2022-07-23T06:35:34;13.57;;;8.30;;
2784;SDS011;57944;48.722;9.316;2022-07-23T06:38:06;12.83;;;9.90;;
2784;SDS011;57944;48.722;9.316;2022-07-23T06:40:36;14.27;;;10.40;;
2784;SDS011;57944;48.722;9.316;2022-07-23T06:43:09;10.00;;;9.00;;
2784;SDS011;57944;48.722;9.316;2022-07-23T06:45:43;10.70;;;9.57;;
2784;SDS011;57944;48.722;9.316;2022-07-23T06:48:13;13.57;;;10.10;;
2784;SDS011;57944;48.722;9.316;2022-07-23T06:50:43;11.47;;;9.63;;
2784;SDS011;57944;48.722;9.316;2022-07-23T06:53:13;10.43;;;9.00;;
2784;SDS011;57944;48.722;9.316;2022-07-23T06:55:44;11.17;;;9.37;;
2784;SDS011;57944;48.722;9.316;2022-07-23T06:58:16;9.80;;;8.80;;
2784;SDS011;57944;48.722;9.316;2022-07-23T07:00:47;10.30;;;9.27;;
2784;SDS011;57944;48.722;9.316;2022-07-23T07:03:19;12.40;;;9.50;;
2784;SDS011;57944;48.722;9.316;2022-07-23T07:05:49;10.77;;;9.67;;
2784;SDS011;57944;48.722;9.316;2022-07-23T07:08:19;13.60;;;10.03;;
2784;SDS011;57944;48.722;9.316;2022-07-23T07:10:49;10.83;;;9.50;;
2784;SDS011;57944;48.722;9.316;2022-07-23T07:13:22;10.90;;;9.43;;
2784;SDS011;57944;48.722;9.316;2022-07-23T07:15:52;13.83;;;9.73;;
2784;SDS011;57944;48.722;9.316;2022-07-23T07:18:23;12.77;;;9.70;;
2784;SDS011;57944;48.722;9.316;2022-07-23T07:20:53;9.83;;;8.40;;
2784;SDS011;57944;48.722;9.316;2022-07-23T07:23:23;9.97;;;8.97;;
2784;SDS011;57944;48.722;9.316;2022-07-23T07:25:53;11.80;;;7.93;;
2784;SDS011;57944;48.722;9.316;2022-07-23T07:28:26;12.73;;;9.23;;
2784;SDS011;57944;48.722;9.316;2022-07-23T07:30:56;13.33;;;10.97;;
2784;SDS011;57944;48.722;9.316;2022-07-23T07:33:26;11.93;;;9.50;;
2784;SDS011;57944;48.722;9.316;2022-07-23T07:35:57;10.17;;;9.00;;
2784;SDS011;57944;48.722;9.316;2022-07-23T07:38:27;10.53;;;9.10;;
2784;SDS011;57944;48.722;9.316;2022-07-23T07:40:57;11.07;;;9.97;;
2784;SDS011;57944;48.722;9.316;2022-07-23T07:43:31;16.00;;;8.30;;
2784;SDS011;57944;48.722;9.316;2022-07-23T07:46:01;11.83;;;10.60;;
2784;SDS011;57944;48.722;9.316;2022-07-23T07:48:33;9.30;;;8.07;;
2784;SDS011;57944;48.722;9.316;2022-07-23T07:51:03;10.77;;;8.57;;
2784;SDS011;57944;48.722;9.316;2022-07-23T07:53:34;9.90;;;8.90;;
2784;SDS011;57944;48.722;9.316;2022-07-23T07:56:05;13.87;;;8.60;;
2784;SDS011;57944;48.722;9.316;2022-07-23T07:58:40;10.20;;;9.20;;
2784;SDS011;57944;48.722;9.316;2022-07-23T08:01:10;11.13;;;9.93;;
2784;SDS011;57944;48.722;9.316;2022-07-23T08:03:40;12.73;;;10.87;;
2784;SDS011;57944;48.722;9.316;2022-07-23T08:06:11;13.17;;;9.77;;
2784;SDS011;57944;48.722;9.316;2022-07-23T08:08:41;10.13;;;8.40;;
2784;SDS011;57944;48.722;9.316;2022-07-23T08:11:12;9.47;;;8.40;;
2784;SDS011;57944;48.722;9.316;2022-07-23T08:13:45;10.40;;;8.33;;
2784;SDS011;57944;48.722;9.316;2022-07-23T08:16:15;9.07;;;8.13;;
2784;SDS011;57944;48.722;9.316;2022-07-23T08:18:46;12.03;;;10.80;;
2784;SDS011;57944;48.722;9.316;2022-07-23T08:21:16;12.40;;;9.13;;
2784;SDS011;57944;48.722;9.316;2022-07-23T08:23:46;10.73;;;9.53;;
2784;SDS011;57944;48.722;9.316;2022-07-23T08:26:16;10.83;;;9.73;;
2784;SDS011;57944;48.722;9.316;2022-07-23T08:28:49;11.80;;;9.10;;
2784;SDS011;57944;48.722;9.316;2022-07-23T08:31:19;11.50;;;8.70;;
2784;SDS011;57944;48.722;9.316;2022-07-23T08:33:49;15.10;;;10.93;;
2784;SDS011;57944;48.722;9.316;2022-07-23T08:36:20;11.20;;;10.07;;
2784;SDS011;57944;48.722;9.316;2022-07-23T08:38:50;12.90;;;9.83;;
2784;SDS011;57944;48.722;9.316;2022-07-23T08:41:20;11.23;;;8.97;;
2784;SDS011;57944;48.722;9.316;2022-07-23T08:43:53;10.47;;;9.10;;
2784;SDS011;57944;48.722;9.316;2022-07-23T08:46:24;9.97;;;8.97;;
2784;SDS011;57944;48.722;9.316;2022-07-23T08:48:55;10.70;;;8.30;;
2784;SDS011;57944;48.722;9.316;2022-07-23T08:51:27;10.00;;;9.00;;
2784;SDS011;57944;48.722;9.316;2022-07-23T08:53:58;10.97;;;9.90;;
2784;SDS011;57944;48.722;9.316;2022-07-23T08:56:30;10.67;;;9.57;;
2784;SDS011;57944;48.722;9.316;2022-07-23T08:59:03;10.60;;;9.43;;
2784;SDS011;57944;48.722;9.316;2022-07-23T09:01:33;13.33;;;10.47;;
2784;SDS011;57944;48.722;9.316;2022-07-23T09:04:03;12.97;;;8.90;;
2784;SDS011;57944;48.722;9.316;2022-07-23T09:06:33;11.13;;;9.33;;
2784;SDS011;57944;48.722;9.316;2022-07-23T09:09:16;12.00;;;9.10;;
2784;SDS011;57944;48.722;9.316;2022-07-23T09:12:01;10.33;;;9.23;;
2784;SDS011;57944;48.722;9.316;2022-07-23T09:14:38;10.57;;;9.47;;
2784;SDS011;57944;48.722;9.316;2022-07-23T09:17:11;11.57;;;9.67;;
2784;SDS011;57944;48.722;9.316;2022-07-23T09:19:45;11.83;;;10.13;;
2784;SDS011;57944;48.722;9.316;2022-07-23T09:22:22;11.07;;;9.73;;
2784;SDS011;57944;48.722;9.316;2022-07-23T09:25:03;10.53;;;9.27;;
2784;SDS011;57944;48.722;9.316;2022-07-23T09:27:47;11.60;;;9.47;;
2784;SDS011;57944;48.722;9.316;2022-07-23T09:30:26;21.30;;;10.03;;
2784;SDS011;57944;48.722;9.316;2022-07-23T09:33:04;14.83;;;10.40;;
2784;SDS011;57944;48.722;9.316;2022-07-23T09:35:49;12.47;;;9.77;;
2784;SDS011;57944;48.722;9.316;2022-07-23T09:38:22;10.47;;;8.77;;
2784;SDS011;57944;48.722;9.316;2022-07-23T09:43:40;11.60;;;9.40;;
2784;SDS011;57944;48.722;9.316;2022-07-23T09:46:20;9.60;;;8.40;;
2784;SDS011;57944;48.722;9.316;2022-07-23T09:48:52;9.43;;;8.40;;
2784;SDS011;57944;48.722;9.316;2022-07-23T09:51:25;8.77;;;7.87;;
2784;SDS011;57944;48.722;9.316;2022-07-23T09:54:00;10.00;;;8.67;;
2784;SDS011;57944;48.722;9.316;2022-07-23T09:56:30;9.47;;;8.57;;
2784;SDS011;57944;48.722;9.316;2022-07-23T09:59:03;10.07;;;9.00;;
2784;SDS011;57944;48.722;9.316;2022-07-23T10:01:38;10.57;;;9.27;;
2784;SDS011;57944;48.722;9.316;2022-07-23T10:04:08;11.50;;;9.50;;
2784;SDS011;57944;48.722;9.316;2022-07-23T10:07:07;9.47;;;8.57;;
2784;SDS011;57944;48.722;9.316;2022-07-23T10:09:58;10.60;;;9.60;;
2784;SDS011;57944;48.722;9.316;2022-07-23T10:13:01;9.43;;;8.53;;
2784;SDS011;57944;48.722;9.316;2022-07-23T10:15:47;10.53;;;9.43;;
2784;SDS011;57944;48.722;9.316;2022-07-23T10:18:21;12.23;;;8.27;;
2784;SDS011;57944;48.722;9.316;2022-07-23T10:20:52;9.90;;;8.90;;
2784;SDS011;57944;48.722;9.316;2022-07-23T10:23:24;9.53;;;8.53;;
2784;SDS011;57944;48.722;9.316;2022-07-23T10:26:05;10.13;;;9.13;;
2784;SDS011;57944;48.722;9.316;2022-07-23T10:28:54;10.33;;;8.57;;
2784;SDS011;57944;48.722;9.316;2022-07-23T10:31:42;9.10;;;8.23;;
2784;SDS011;57944;48.722;9.316;2022-07-23T10:34:34;9.40;;;8.40;;
2784;SDS011;57944;48.722;9.316;2022-07-23T10:37:14;11.13;;;9.53;;
2784;SDS011;57944;48.722;9.316;2022-07-23T10:42:44;10.13;;;9.13;;
2784;SDS011;57944;48.722;9.316;2022-07-23T10:45:25;10.40;;;9.17;;
2784;SDS011;57944;48.722;9.316;2022-07-23T10:48:11;10.67;;;9.67;;
2784;SDS011;57944;48.722;9.316;2022-07-23T11:02:55;9.70;;;8.80;;
2784;SDS011;57944;48.722;9.316;2022-07-23T11:05:38;9.30;;;8.40;;
2784;SDS011;57944;48.722;9.316;2022-07-23T11:08:18;9.20;;;8.07;;
2784;SDS011;57944;48.722;9.316;2022-07-23T11:10:51;9.20;;;8.20;;
2784;SDS011;57944;48.722;9.316;2022-07-23T11:13:28;9.47;;;8.57;;
2784;SDS011;57944;48.722;9.316;2022-07-23T11:16:14;14.93;;;8.77;;
2784;SDS011;57944;48.722;9.316;2022-07-23T11:21:45;10.70;;;9.60;;
2784;SDS011;57944;48.722;9.316;2022-07-23T11:24:25;10.13;;;8.87;;
2784;SDS011;57944;48.722;9.316;2022-07-23T11:27:02;9.70;;;8.80;;
2784;SDS011;57944;48.722;9.316;2022-07-23T11:29:43;9.93;;;8.00;;
2784;SDS011;57944;48.722;9.316;2022-07-23T11:32:18;10.10;;;8.80;;
2784;SDS011;57944;48.722;9.316;2022-07-23T11:37:54;9.73;;;8.73;;
2784;SDS011;57944;48.722;9.316;2022-07-23T11:40:36;8.53;;;7.73;;
2784;SDS011;57944;48.722;9.316;2022-07-23T11:43:08;9.10;;;8.30;;
2784;SDS011;57944;48.722;9.316;2022-07-23T11:45:40;9.80;;;8.90;;
2784;SDS011;57944;48.722;9.316;2022-07-23T11:48:17;10.33;;;9.17;;
2784;SDS011;57944;48.722;9.316;2022-07-23T11:50:51;9.50;;;8.50;;
2784;SDS011;57944;48.722;9.316;2022-07-23T11:53:23;9.60;;;8.60;;
2784;SDS011;57944;48.722;9.316;2022-07-23T11:56:04;8.97;;;8.17;;
2784;SDS011;57944;48.722;9.316;2022-07-23T11:58:38;10.00;;;8.97;;
2784;SDS011;57944;48.722;9.316;2022-07-23T12:01:25;10.47;;;9.40;;
2784;SDS011;57944;48.722;9.316;2022-07-23T12:03:56;10.30;;;9.40;;
2784;SDS011;57944;48.722;9.316;2022-07-23T12:06:27;9.77;;;8.87;;
2784;SDS011;57944;48.722;9.316;2022-07-23T12:09:03;12.53;;;9.47;;
2784;SDS011;57944;48.722;9.316;2022-07-23T12:11:36;8.70;;;7.90;;
2784;SDS011;57944;48.722;9.316;2022-07-23T12:14:08;9.17;;;8.37;;
2784;SDS011;57944;48.722;9.316;2022-07-23T12:16:40;10.10;;;9.00;;
2784;SDS011;57944;48.722;9.316;2022-07-23T12:19:10;10.43;;;9.43;;
2784;SDS011;57944;48.722;9.316;2022-07-23T12:21:41;9.50;;;8.50;;
2784;SDS011;57944;48.722;9.316;2022-07-23T12:24:11;10.43;;;9.50;;
2784;SDS011;57944;48.722;9.316;2022-07-23T12:26:59;10.37;;;9.37;;
2784;SDS011;57944;48.722;9.316;2022-07-23T12:29:38;10.33;;;8.73;;
2784;SDS011;57944;48.722;9.316;2022-07-23T12:32:16;12.60;;;9.63;;
2784;SDS011;57944;48.722;9.316;2022-07-23T12:34:49;9.77;;;8.77;;
2784;SDS011;57944;48.722;9.316;2022-07-23T12:37:32;10.00;;;9.00;;
2784;SDS011;57944;48.722;9.316;2022-07-23T12:42:57;9.20;;;8.30;;
2784;SDS011;57944;48.722;9.316;2022-07-23T12:45:41;9.13;;;8.23;;
2784;SDS011;57944;48.722;9.316;2022-07-23T12:48:18;9.97;;;8.67;;
2784;SDS011;57944;48.722;9.316;2022-07-23T12:50:54;12.33;;;9.33;;
2784;SDS011;57944;48.722;9.316;2022-07-23T12:53:28;10.30;;;9.13;;
2784;SDS011;57944;48.722;9.316;2022-07-23T12:56:02;10.10;;;9.10;;
2784;SDS011;57944;48.722;9.316;2022-07-23T12:58:49;10.97;;;9.63;;
2784;SDS011;57944;48.722;9.316;2022-07-23T13:01:24;12.30;;;9.40;;
2784;SDS011;57944;48.722;9.316;2022-07-23T13:04:00;11.90;;;9.90;;
2784;SDS011;57944;48.722;9.316;2022-07-23T13:06:42;10.40;;;9.30;;
2784;SDS011;57944;48.722;9.316;2022-07-23T13:09:17;10.50;;;9.50;;
2784;SDS011;57944;48.722;9.316;2022-07-23T13:11:52;12.53;;;8.80;;
2784;SDS011;57944;48.722;9.316;2022-07-23T13:14:27;11.53;;;10.17;;
2784;SDS011;57944;48.722;9.316;2022-07-23T13:16:58;12.57;;;9.10;;
2784;SDS011;57944;48.722;9.316;2022-07-23T13:19:32;11.20;;;9.57;;
2784;SDS011;57944;48.722;9.316;2022-07-23T13:22:02;11.13;;;9.70;;
2784;SDS011;57944;48.722;9.316;2022-07-23T13:24:35;10.40;;;9.40;;
2784;SDS011;57944;48.722;9.316;2022-07-23T13:27:05;11.03;;;10.03;;
2784;SDS011;57944;48.722;9.316;2022-07-23T13:29:41;11.23;;;9.90;;
2784;SDS011;57944;48.722;9.316;2022-07-23T13:32:11;10.17;;;9.17;;
2784;SDS011;57944;48.722;9.316;2022-07-23T13:34:42;11.20;;;10.00;;
2784;SDS011;57944;48.722;9.316;2022-07-23T13:37:15;12.10;;;10.33;;
2784;SDS011;57944;48.722;9.316;2022-07-23T13:39:46;10.20;;;9.20;;
2784;SDS011;57944;48.722;9.316;2022-07-23T13:42:16;10.80;;;9.70;;
2784;SDS011;57944;48.722;9.316;2022-07-23T13:44:51;10.63;;;9.63;;
2784;SDS011;57944;48.722;9.316;2022-07-23T13:47:22;11.17;;;10.07;;
2784;SDS011;57944;48.722;9.316;2022-07-23T13:49:53;10.53;;;9.53;;
2784;SDS011;57944;48.722;9.316;2022-07-23T13:52:23;11.80;;;10.63;;
2784;SDS011;57944;48.722;9.316;2022-07-23T13:54:53;11.67;;;10.57;;
2784;SDS011;57944;48.722;9.316;2022-07-23T13:57:23;10.50;;;9.50;;
2784;SDS011;57944;48.722;9.316;2022-07-23T13:59:57;12.20;;;10.80;;
2784;SDS011;57944;48.722;9.316;2022-07-23T14:02:29;10.13;;;9.13;;
2784;SDS011;57944;48.722;9.316;2022-07-23T14:05:00;12.60;;;10.00;;
2784;SDS011;57944;48.722;9.316;2022-07-23T14:07:30;11.73;;;10.53;;
2784;SDS011;57944;48.722;9.316;2022-07-23T14:10:00;10.70;;;9.43;;
2784;SDS011;57944;48.722;9.316;2022-07-23T14:12:33;12.23;;;10.73;;
2784;SDS011;57944;48.722;9.316;2022-07-23T14:15:08;10.23;;;9.23;;
2784;SDS011;57944;48.722;9.316;2022-07-23T14:17:40;11.27;;;10.17;;
2784;SDS011;57944;48.722;9.316;2022-07-23T14:20:15;10.57;;;9.50;;
2784;SDS011;57944;48.722;9.316;2022-07-23T14:22:45;10.50;;;9.10;;
2784;SDS011;57944;48.722;9.316;2022-07-23T14:25:16;12.80;;;11.03;;
2784;SDS011;57944;48.722;9.316;2022-07-23T14:27:46;11.40;;;9.93;;
2784;SDS011;57944;48.722;9.316;2022-07-23T14:30:20;15.93;;;9.50;;
2784;SDS011;57944;48.722;9.316;2022-07-23T14:32:59;13.00;;;10.77;;
2784;SDS011;57944;48.722;9.316;2022-07-23T14:35:29;11.90;;;10.70;;
2784;SDS011;57944;48.722;9.316;2022-07-23T14:37:59;12.87;;;10.60;;
2784;SDS011;57944;48.722;9.316;2022-07-23T14:40:30;12.97;;;11.57;;
2784;SDS011;57944;48.722;9.316;2022-07-23T14:43:00;15.47;;;12.77;;
2784;SDS011;57944;48.722;9.316;2022-07-23T14:48:15;16.43;;;10.80;;
2784;SDS011;57944;48.722;9.316;2022-07-23T14:50:47;12.03;;;10.93;;
2784;SDS011;57944;48.722;9.316;2022-07-23T14:53:17;11.90;;;10.70;;
2784;SDS011;57944;48.722;9.316;2022-07-23T14:55:51;13.10;;;11.80;;
2784;SDS011;57944;48.722;9.316;2022-07-23T14:58:22;15.03;;;10.97;;
2784;SDS011;57944;48.722;9.316;2022-07-23T15:00:55;11.47;;;10.27;;
2784;SDS011;57944;48.722;9.316;2022-07-23T15:03:26;13.30;;;12.03;;
2784;SDS011;57944;48.722;9.316;2022-07-23T15:06:07;11.90;;;10.63;;
2784;SDS011;57944;48.722;9.316;2022-07-23T15:08:38;11.13;;;10.03;;
2784;SDS011;57944;48.722;9.316;2022-07-23T15:11:09;11.83;;;10.83;;
2784;SDS011;57944;48.722;9.316;2022-07-23T15:13:40;13.20;;;12.00;;
2784;SDS011;57944;48.722;9.316;2022-07-23T15:16:15;12.93;;;11.50;;
2784;SDS011;57944;48.722;9.316;2022-07-23T15:18:50;12.77;;;10.43;;
2784;SDS011;57944;48.722;9.316;2022-07-23T15:21:20;12.47;;;11.27;;
2784;SDS011;57944;48.722;9.316;2022-07-23T15:23:50;11.30;;;10.20;;
2784;SDS011;57944;48.722;9.316;2022-07-23T15:26:21;11.40;;;10.30;;
2784;SDS011;57944;48.722;9.316;2022-07-23T15:28:51;13.07;;;11.80;;
2784;SDS011;57944;48.722;9.316;2022-07-23T15:31:24;12.77;;;11.13;;
2784;SDS011;57944;48.722;9.316;2022-07-23T15:33:55;14.27;;;12.10;;
2784;SDS011;57944;48.722;9.316;2022-07-23T15:36:25;11.93;;;10.10;;
2784;SDS011;57944;48.722;9.316;2022-07-23T15:38:55;13.33;;;11.83;;
2784;SDS011;57944;48.722;9.316;2022-07-23T15:41:26;13.23;;;10.57;;
2784;SDS011;57944;48.722;9.316;2022-07-23T15:43:56;14.53;;;11.50;;
2784;SDS011;57944;48.722;9.316;2022-07-23T15:46:49;12.97;;;11.67;;
2784;SDS011;57944;48.722;9.316;2022-07-23T15:49:20;13.77;;;11.40;;
2784;SDS011;57944;48.722;9.316;2022-07-23T15:51:50;12.40;;;11.20;;
2784;SDS011;57944;48.722;9.316;2022-07-23T15:54:21;11.37;;;9.67;;
2784;SDS011;57944;48.722;9.316;2022-07-23T15:56:51;11.53;;;10.33;;